createdAt,value
2023-03-17T00:01:54.037Z,1.92
2023-03-17T00:04:22.528Z,2.03
2023-03-17T00:06:48.969Z,1.83
2023-03-17T00:09:17.769Z,1.90
2023-03-17T00:11:45.725Z,1.88
2023-03-17T00:14:12.161Z,1.95
2023-03-17T00:16:44.614Z,2.08
2023-03-17T00:19:17.062Z,2.80
2023-03-17T00:21:45.870Z,1.75
2023-03-17T00:24:14.844Z,2.35
2023-03-17T00:26:42.377Z,2.10
2023-03-17T00:29:08.968Z,2.15
2023-03-17T00:31:36.250Z,2.03
2023-03-17T00:34:02.752Z,1.85
2023-03-17T00:36:32.313Z,2.40
2023-03-17T00:38:59.499Z,2.00
2023-03-17T00:41:27.321Z,1.60
2023-03-17T00:43:54.098Z,2.25
2023-03-17T00:46:35.742Z,2.03
2023-03-17T00:49:10.633Z,2.13
2023-03-17T00:51:39.954Z,2.20
2023-03-17T00:54:06.800Z,2.00
2023-03-17T00:56:33.319Z,2.03
2023-03-17T00:59:00.049Z,2.22
2023-03-17T01:01:26.693Z,1.92
2023-03-17T01:03:53.380Z,1.60
2023-03-17T01:06:20.088Z,2.20
2023-03-17T01:08:47.382Z,2.40
2023-03-17T01:11:19.087Z,2.20
2023-03-17T01:13:47.538Z,2.00
2023-03-17T01:16:15.358Z,2.20
2023-03-17T01:18:41.980Z,2.90
2023-03-17T01:21:08.425Z,3.40
2023-03-17T01:23:35.411Z,3.85
2023-03-17T01:26:02.139Z,3.80
2023-03-17T01:28:28.775Z,4.05
2023-03-17T01:30:55.441Z,4.75
2023-03-17T01:33:22.165Z,4.85
2023-03-17T01:35:50.540Z,3.53
2023-03-17T01:38:17.496Z,3.25
2023-03-17T01:40:47.924Z,3.33
2023-03-17T01:43:27.631Z,2.75
2023-03-17T01:46:17.913Z,2.70
2023-03-17T01:48:47.322Z,2.60
2023-03-17T01:51:21.958Z,2.22
2023-03-17T01:53:49.777Z,2.83
2023-03-17T01:56:17.967Z,2.92
2023-03-17T01:58:48.178Z,3.00
2023-03-17T02:01:15.467Z,3.20
2023-03-17T02:03:42.892Z,3.70
2023-03-17T02:06:10.036Z,3.53
2023-03-17T02:08:36.485Z,3.75
2023-03-17T02:11:05.332Z,3.45
2023-03-17T02:13:33.344Z,2.50
2023-03-17T02:16:00.003Z,2.33
2023-03-17T02:18:27.029Z,2.30
2023-03-17T02:20:53.370Z,1.90
2023-03-17T02:23:24.739Z,2.17
2023-03-17T02:25:53.504Z,1.80
2023-03-17T02:28:25.849Z,1.80
2023-03-17T02:30:52.330Z,1.90
2023-03-17T02:33:19.026Z,1.80
2023-03-17T02:35:46.136Z,1.80
2023-03-17T02:38:15.936Z,1.92
2023-03-17T02:40:42.358Z,2.15
2023-03-17T02:43:08.899Z,2.35
2023-03-17T02:45:36.724Z,2.20
2023-03-17T02:48:03.929Z,1.95
2023-03-17T02:50:31.681Z,2.10
2023-03-17T02:52:58.424Z,2.33
2023-03-17T02:55:24.803Z,1.95
2023-03-17T02:57:51.440Z,1.67
2023-03-17T03:00:19.548Z,2.28
2023-03-17T03:02:46.022Z,2.30
2023-03-17T03:05:12.605Z,2.10
2023-03-17T03:07:38.985Z,2.00
2023-03-17T03:10:06.089Z,1.88
2023-03-17T03:12:32.759Z,2.00
2023-03-17T03:14:59.602Z,2.20
2023-03-17T03:17:26.225Z,2.17
2023-03-17T03:19:52.623Z,2.15
2023-03-17T03:22:19.364Z,2.10
2023-03-17T03:24:46.772Z,2.28
2023-03-17T03:27:13.380Z,2.08
2023-03-17T03:29:39.886Z,1.90
2023-03-17T03:32:07.228Z,2.15
2023-03-17T03:34:33.741Z,2.25
2023-03-17T03:37:00.177Z,2.40
2023-03-17T03:39:26.620Z,2.20
2023-03-17T03:41:57.211Z,2.30
2023-03-17T03:44:24.616Z,2.70
2023-03-17T03:46:51.737Z,2.38
2023-03-17T03:49:18.290Z,2.50
2023-03-17T03:51:44.663Z,3.20
2023-03-17T03:54:11.173Z,3.08
2023-03-17T03:56:37.530Z,3.60
2023-03-17T03:59:04.208Z,3.60
2023-03-17T04:01:30.756Z,3.60
2023-03-17T04:03:57.132Z,3.72
2023-03-17T04:06:23.645Z,3.58
2023-03-17T04:08:50.062Z,3.78
2023-03-17T04:11:16.692Z,2.92
2023-03-17T04:13:43.194Z,2.13
2023-03-17T04:16:10.002Z,2.20
2023-03-17T04:18:36.762Z,2.25
2023-03-17T04:21:03.228Z,2.20
2023-03-17T04:23:31.382Z,2.42
2023-03-17T04:25:58.330Z,1.90
2023-03-17T04:28:24.872Z,2.10
2023-03-17T04:30:51.558Z,2.35
2023-03-17T04:33:20.098Z,2.17
2023-03-17T04:35:46.675Z,1.98
2023-03-17T04:38:13.433Z,2.22
2023-03-17T04:40:39.835Z,2.47
2023-03-17T04:43:06.502Z,2.38
2023-03-17T04:45:33.188Z,1.98
2023-03-17T04:48:00.144Z,2.22
2023-03-17T04:50:26.560Z,2.22
2023-03-17T04:52:53.032Z,2.20
2023-03-17T04:55:19.560Z,2.15
2023-03-17T04:57:46.399Z,2.20
2023-03-17T05:00:15.308Z,2.22
2023-03-17T05:02:41.889Z,2.20
2023-03-17T05:05:08.536Z,2.15
2023-03-17T05:07:35.428Z,2.10
2023-03-17T05:10:02.110Z,2.28
2023-03-17T05:12:28.593Z,2.20
2023-03-17T05:14:55.370Z,2.40
2023-03-17T05:17:22.114Z,2.30
2023-03-17T05:19:48.529Z,2.08
2023-03-17T05:22:14.908Z,2.45
2023-03-17T05:24:41.297Z,2.40
2023-03-17T05:27:07.824Z,2.15
2023-03-17T05:29:34.421Z,2.42
2023-03-17T05:32:00.845Z,2.42
2023-03-17T05:34:27.371Z,2.35
2023-03-17T05:36:54.250Z,2.60
2023-03-17T05:39:20.654Z,2.20
2023-03-17T05:41:47.146Z,2.25
2023-03-17T05:44:13.623Z,2.60
2023-03-17T05:46:40.490Z,2.38
2023-03-17T05:49:07.504Z,2.15
2023-03-17T05:51:35.747Z,2.60
2023-03-17T05:54:03.480Z,2.83
2023-03-17T05:56:33.473Z,2.33
2023-03-17T05:59:01.577Z,2.70
2023-03-17T06:01:29.257Z,2.22
2023-03-17T06:03:55.779Z,2.65
2023-03-17T06:06:24.425Z,2.35
2023-03-17T06:08:50.781Z,2.40
2023-03-17T06:11:20.042Z,2.80
2023-03-17T06:13:46.844Z,2.70
2023-03-17T06:16:13.954Z,2.50
2023-03-17T06:18:40.459Z,2.78
2023-03-17T06:21:07.187Z,2.67
2023-03-17T06:23:33.600Z,2.78
2023-03-17T06:26:00.022Z,2.90
2023-03-17T06:28:26.536Z,2.92
2023-03-17T06:30:53.025Z,2.40
2023-03-17T06:33:19.915Z,2.55
2023-03-17T06:35:46.716Z,2.78
2023-03-17T06:38:14.455Z,2.33
2023-03-17T06:40:41.328Z,2.40
2023-03-17T06:43:07.750Z,1.92
2023-03-17T06:45:34.505Z,2.42
2023-03-17T06:48:02.177Z,2.60
2023-03-17T06:50:28.865Z,2.20
2023-03-17T06:52:55.383Z,2.58
2023-03-17T06:55:22.051Z,2.42
2023-03-17T06:57:50.954Z,2.67
2023-03-17T07:00:18.743Z,2.53
2023-03-17T07:02:45.792Z,2.90
2023-03-17T07:05:13.837Z,2.38
2023-03-17T07:07:40.861Z,2.47
2023-03-17T07:10:10.235Z,2.40
2023-03-17T07:12:37.483Z,2.58
2023-03-17T07:15:04.203Z,2.28
2023-03-17T07:17:30.683Z,2.40
2023-03-17T07:19:57.072Z,2.25
2023-03-17T07:22:23.442Z,2.10
2023-03-17T07:24:49.820Z,2.30
2023-03-17T07:27:16.538Z,2.50
2023-03-17T07:29:42.997Z,2.20
2023-03-17T07:32:10.325Z,2.00
2023-03-17T07:34:37.270Z,2.20
2023-03-17T07:37:04.284Z,2.17
2023-03-17T07:39:31.186Z,2.22
2023-03-17T07:41:58.155Z,2.15
2023-03-17T07:44:25.742Z,2.17
2023-03-17T07:46:52.113Z,1.88
2023-03-17T07:49:34.049Z,2.22
2023-03-17T07:52:05.659Z,2.10
2023-03-17T07:54:32.306Z,1.80
2023-03-17T07:56:59.117Z,1.80
2023-03-17T07:59:25.529Z,2.10
2023-03-17T08:01:53.111Z,2.03
2023-03-17T08:04:19.697Z,1.85
2023-03-17T08:06:46.878Z,2.20
2023-03-17T08:09:13.342Z,2.30
2023-03-17T08:11:39.778Z,1.92
2023-03-17T08:14:06.667Z,2.00
2023-03-17T08:16:33.231Z,1.95
2023-03-17T08:19:00.102Z,2.40
2023-03-17T08:21:27.283Z,2.30
2023-03-17T08:23:54.355Z,1.90
2023-03-17T08:26:21.821Z,2.08
2023-03-17T08:28:50.150Z,2.42
2023-03-17T08:31:20.818Z,2.20
2023-03-17T08:33:50.420Z,2.40
2023-03-17T08:36:18.799Z,2.22
2023-03-17T08:38:46.582Z,2.50
2023-03-17T08:41:16.599Z,2.38
2023-03-17T08:43:44.332Z,2.40
2023-03-17T08:46:18.762Z,2.58
2023-03-17T08:48:46.710Z,2.28
2023-03-17T08:51:13.589Z,2.42
2023-03-17T08:53:40.566Z,2.30
2023-03-17T08:56:08.326Z,2.28
2023-03-17T08:58:37.625Z,2.33
2023-03-17T09:01:05.776Z,2.35
2023-03-17T09:03:33.479Z,2.50
2023-03-17T09:06:00.004Z,1.90
2023-03-17T09:08:27.721Z,2.13
2023-03-17T09:10:54.218Z,2.35
2023-03-17T09:13:21.999Z,2.22
2023-03-17T09:15:51.732Z,2.10
2023-03-17T09:18:21.460Z,1.83
2023-03-17T09:20:48.535Z,1.98
2023-03-17T09:23:15.826Z,2.25
2023-03-17T09:25:42.813Z,2.00
2023-03-17T09:28:12.304Z,2.05
2023-03-17T09:30:45.059Z,2.30
2023-03-17T09:33:13.356Z,1.83
2023-03-17T09:35:40.376Z,2.30
2023-03-17T09:38:07.981Z,2.15
2023-03-17T09:40:47.867Z,2.17
2023-03-17T09:43:39.152Z,1.92
2023-03-17T09:46:48.368Z,2.00
2023-03-17T09:49:25.227Z,2.20
2023-03-17T09:51:52.394Z,2.13
2023-03-17T09:54:25.854Z,2.17
2023-03-17T09:59:30.272Z,2.42
2023-03-17T10:01:57.578Z,1.90
2023-03-17T10:04:24.270Z,1.70
2023-03-17T10:06:52.291Z,2.05
2023-03-17T10:09:40.056Z,2.38
2023-03-17T10:12:12.958Z,2.20
2023-03-17T10:15:03.416Z,1.85
2023-03-17T10:17:34.230Z,1.90
2023-03-17T10:20:17.444Z,2.05
2023-03-17T10:22:50.222Z,1.92
2023-03-17T10:25:22.822Z,2.03
2023-03-17T10:27:56.848Z,2.35
2023-03-17T10:30:23.819Z,1.98
2023-03-17T10:32:52.395Z,2.08
2023-03-17T10:35:20.112Z,2.08
2023-03-17T10:37:47.430Z,1.95
2023-03-17T10:40:22.633Z,2.05
2023-03-17T10:42:54.051Z,2.05
2023-03-17T10:45:27.739Z,2.00
2023-03-17T10:47:57.393Z,2.30
2023-03-17T10:50:33.132Z,2.10
2023-03-17T10:53:03.014Z,2.08
2023-03-17T10:55:38.737Z,1.90
2023-03-17T10:58:22.513Z,1.90
2023-03-17T11:00:56.929Z,2.20
2023-03-17T11:03:27.857Z,1.80
2023-03-17T11:06:03.850Z,2.17
2023-03-17T11:08:36.873Z,2.00
2023-03-17T11:11:07.199Z,1.98
2023-03-17T11:13:33.887Z,1.88
2023-03-17T11:16:23.343Z,2.00
2023-03-17T11:18:57.401Z,2.10
2023-03-17T11:21:27.640Z,2.20
2023-03-17T11:23:59.482Z,2.05
2023-03-17T11:26:38.665Z,1.75
2023-03-17T11:29:24.374Z,1.90
2023-03-17T11:31:59.546Z,2.33
2023-03-17T11:34:52.013Z,2.00
2023-03-17T11:37:50.046Z,1.98
2023-03-17T11:40:45.477Z,1.70
2023-03-17T11:43:36.810Z,1.92
2023-03-17T11:46:11.671Z,2.22
2023-03-17T11:48:51.584Z,2.03
2023-03-17T11:51:33.744Z,2.40
2023-03-17T11:54:10.853Z,1.80
2023-03-17T11:56:44.561Z,1.90
2023-03-17T11:59:34.416Z,2.08
2023-03-17T12:02:20.732Z,2.30
2023-03-17T12:04:58.241Z,2.08
2023-03-17T12:07:37.425Z,2.30
2023-03-17T12:10:13.824Z,1.98
2023-03-17T12:12:48.172Z,1.88
2023-03-17T12:15:22.492Z,1.92
2023-03-17T12:17:56.591Z,1.90
2023-03-17T12:20:44.864Z,2.20
2023-03-17T12:23:49.635Z,1.90
2023-03-17T12:26:23.858Z,2.25
2023-03-17T12:29:02.039Z,1.90
2023-03-17T12:31:33.398Z,2.10
2023-03-17T12:34:09.315Z,1.65
2023-03-17T12:36:40.405Z,2.28
2023-03-17T12:39:12.459Z,2.13
2023-03-17T12:42:07.233Z,1.95
2023-03-17T12:44:57.467Z,2.35
2023-03-17T12:47:39.124Z,1.88
2023-03-17T12:50:32.345Z,1.98
2023-03-17T12:53:26.581Z,2.10
2023-03-17T12:55:56.957Z,1.83
2023-03-17T12:58:37.062Z,1.83
2023-03-17T13:01:15.833Z,2.00
2023-03-17T13:04:21.857Z,2.03
2023-03-17T13:06:59.654Z,1.73
2023-03-17T13:10:09.717Z,2.03
2023-03-17T13:13:21.791Z,1.80
2023-03-17T13:15:52.668Z,2.13
2023-03-17T13:18:19.029Z,2.00
2023-03-17T13:21:10.299Z,1.73
2023-03-17T13:24:20.354Z,2.05
2023-03-17T13:27:01.681Z,1.90
2023-03-17T13:29:33.907Z,1.83
2023-03-17T13:32:15.556Z,1.90
2023-03-17T13:34:48.862Z,2.20
2023-03-17T13:40:11.104Z,1.90
2023-03-17T13:45:34.017Z,1.77
2023-03-17T13:48:22.241Z,1.80
2023-03-17T13:50:57.202Z,1.65
2023-03-17T13:53:28.563Z,2.00
2023-03-17T13:56:11.839Z,1.73
2023-03-17T13:59:00.208Z,1.77
2023-03-17T14:01:30.485Z,2.08
2023-03-17T14:03:57.066Z,2.20
2023-03-17T14:06:30.040Z,1.98
2023-03-17T14:09:11.063Z,1.75
2023-03-17T14:11:43.795Z,1.83
2023-03-17T14:14:38.354Z,2.10
2023-03-17T14:17:28.843Z,2.00
2023-03-17T14:20:13.698Z,2.33
2023-03-17T14:22:45.972Z,1.95
2023-03-17T14:25:21.163Z,2.85
2023-03-17T14:27:56.892Z,2.03
2023-03-17T14:30:27.097Z,2.35
2023-03-17T14:33:37.824Z,1.85
2023-03-17T14:36:08.631Z,1.90
2023-03-17T14:38:37.545Z,1.70
2023-03-17T14:41:07.321Z,1.92
2023-03-17T14:43:35.930Z,2.30
2023-03-17T14:46:07.877Z,1.88
2023-03-17T14:48:37.401Z,1.80
2023-03-17T14:51:15.829Z,1.90
2023-03-17T14:53:46.099Z,1.58
2023-03-17T14:56:13.623Z,1.98
2023-03-17T14:58:44.712Z,1.75
2023-03-17T15:01:19.972Z,1.75
2023-03-17T15:04:06.997Z,1.90
2023-03-17T15:06:36.859Z,1.58
2023-03-17T15:09:16.772Z,1.67
2023-03-17T15:11:44.366Z,1.60
2023-03-17T15:14:32.880Z,1.75
2023-03-17T15:17:03.138Z,1.70
2023-03-17T15:19:40.873Z,1.40
2023-03-17T15:22:25.988Z,2.25
2023-03-17T15:25:00.224Z,1.42
2023-03-17T15:27:27.884Z,1.90
2023-03-17T15:29:54.526Z,1.67
2023-03-17T15:32:27.553Z,1.80
2023-03-17T15:34:56.973Z,1.88
2023-03-17T15:37:24.534Z,1.50
2023-03-17T15:39:53.579Z,1.88
2023-03-17T15:42:26.512Z,1.60
2023-03-17T15:44:53.788Z,1.70
2023-03-17T15:47:22.690Z,1.67
2023-03-17T15:49:50.845Z,1.60
2023-03-17T15:52:24.793Z,2.00
2023-03-17T15:54:53.179Z,2.17
2023-03-17T15:57:19.907Z,1.88
2023-03-17T15:59:46.374Z,1.92
2023-03-17T16:02:32.112Z,2.00
2023-03-17T16:05:01.342Z,1.70
2023-03-17T16:07:28.686Z,1.83
2023-03-17T16:09:55.153Z,1.85
2023-03-17T16:12:21.788Z,1.38
2023-03-17T16:14:48.361Z,1.77
2023-03-17T16:17:28.735Z,1.17
2023-03-17T16:19:56.196Z,1.65
2023-03-17T16:22:36.073Z,1.30
2023-03-17T16:25:03.791Z,1.60
2023-03-17T16:27:30.218Z,1.45
2023-03-17T16:29:56.583Z,1.70
2023-03-17T16:32:23.175Z,1.67
2023-03-17T16:34:49.715Z,1.80
2023-03-17T16:37:16.655Z,1.58
2023-03-17T16:39:43.163Z,1.80
2023-03-17T16:42:22.277Z,1.50
2023-03-17T16:44:48.890Z,1.50
2023-03-17T16:47:15.667Z,1.50
2023-03-17T16:49:42.331Z,1.50
2023-03-17T16:52:09.028Z,1.63
2023-03-17T16:54:35.682Z,1.60
2023-03-17T16:57:02.132Z,1.67
2023-03-17T16:59:31.283Z,1.90
2023-03-17T17:01:58.326Z,1.75
2023-03-17T17:04:25.056Z,1.63
2023-03-17T17:06:51.565Z,1.60
2023-03-17T17:09:18.942Z,1.80
2023-03-17T17:11:45.494Z,1.50
2023-03-17T17:14:11.908Z,1.67
2023-03-17T17:16:39.907Z,1.55
2023-03-17T17:19:15.589Z,1.58
2023-03-17T17:21:42.422Z,2.10
2023-03-17T17:24:13.192Z,2.50
2023-03-17T17:26:39.781Z,2.72
2023-03-17T17:29:06.375Z,2.80
2023-03-17T17:31:33.218Z,2.30
2023-03-17T17:33:59.732Z,2.30
2023-03-17T17:36:26.844Z,2.00
2023-03-17T17:38:53.233Z,2.10
2023-03-17T17:41:21.518Z,2.25
2023-03-17T17:43:48.149Z,2.00
2023-03-17T17:46:20.324Z,2.15
2023-03-17T17:48:47.243Z,1.90
2023-03-17T17:51:14.391Z,2.00
2023-03-17T17:53:41.015Z,1.88
2023-03-17T17:56:08.203Z,1.70
2023-03-17T17:58:34.642Z,1.90
2023-03-17T18:01:01.618Z,1.80
2023-03-17T18:03:28.659Z,2.40
2023-03-17T18:05:57.409Z,1.75
2023-03-17T18:08:25.312Z,2.15
2023-03-17T18:10:52.413Z,2.25
2023-03-17T18:13:18.969Z,2.53
2023-03-17T18:15:45.343Z,2.80
2023-03-17T18:18:12.022Z,2.45
2023-03-17T18:20:38.480Z,2.35
2023-03-17T18:23:04.883Z,2.05
2023-03-17T18:25:31.320Z,2.30
2023-03-17T18:28:00.463Z,1.98
2023-03-17T18:30:31.021Z,3.40
2023-03-17T18:33:04.544Z,2.83
2023-03-17T18:35:31.450Z,2.33
2023-03-17T18:37:58.344Z,2.33
2023-03-17T18:40:25.964Z,1.70
2023-03-17T18:42:52.638Z,1.88
2023-03-17T18:45:19.394Z,1.67
2023-03-17T18:47:45.842Z,2.15
2023-03-17T18:50:14.477Z,2.03
2023-03-17T18:52:42.323Z,1.92
2023-03-17T18:55:11.014Z,2.15
2023-03-17T18:57:37.770Z,2.15
2023-03-17T19:00:05.853Z,1.80
2023-03-17T19:02:33.163Z,1.90
2023-03-17T19:04:59.649Z,2.20
2023-03-17T19:07:26.525Z,1.63
2023-03-17T19:09:52.932Z,2.83
2023-03-17T19:12:19.593Z,4.03
2023-03-17T19:14:46.220Z,4.43
2023-03-17T19:17:12.887Z,4.70
2023-03-17T19:19:41.187Z,3.10
2023-03-17T19:22:08.136Z,2.63
2023-03-17T19:24:36.991Z,2.75
2023-03-17T19:27:04.565Z,2.80
2023-03-17T19:29:31.014Z,3.08
2023-03-17T19:31:58.472Z,4.20
2023-03-17T19:34:24.949Z,3.38
2023-03-17T19:36:51.683Z,3.28
2023-03-17T19:39:18.167Z,4.28
2023-03-17T19:41:44.765Z,4.70
2023-03-17T19:44:11.195Z,4.07
2023-03-17T19:46:37.931Z,3.45
2023-03-17T19:49:04.787Z,3.40
2023-03-17T19:51:31.849Z,3.85
2023-03-17T19:53:58.352Z,4.60
2023-03-17T19:56:25.006Z,5.10
2023-03-17T19:58:51.454Z,3.42
2023-03-17T20:01:18.368Z,2.72
2023-03-17T20:03:44.863Z,3.63
2023-03-17T20:06:15.022Z,3.78
2023-03-17T20:08:42.659Z,3.47
2023-03-17T20:11:10.166Z,3.70
2023-03-17T20:13:37.197Z,3.63
2023-03-17T20:16:05.668Z,3.33
2023-03-17T20:18:32.232Z,3.83
2023-03-17T20:21:00.093Z,3.95
2023-03-17T20:23:26.977Z,3.20
2023-03-17T20:25:53.509Z,3.13
2023-03-17T20:28:21.391Z,2.97
2023-03-17T20:30:49.240Z,2.67
2023-03-17T20:33:16.745Z,2.97
2023-03-17T20:35:46.721Z,2.70
2023-03-17T20:38:14.533Z,3.30
2023-03-17T20:40:41.695Z,3.00
2023-03-17T20:43:09.272Z,2.90
2023-03-17T20:45:35.807Z,2.60
2023-03-17T20:48:05.882Z,2.95
2023-03-17T20:50:34.287Z,2.70
2023-03-17T20:53:01.492Z,3.13
2023-03-17T20:55:28.213Z,3.22
2023-03-17T20:57:58.551Z,2.75
2023-03-17T21:00:26.087Z,2.97
2023-03-17T21:02:53.103Z,3.13
2023-03-17T21:05:25.218Z,3.30
2023-03-17T21:07:51.862Z,2.75
2023-03-17T21:10:19.107Z,3.35
2023-03-17T21:12:46.298Z,3.20
2023-03-17T21:15:13.823Z,3.10
2023-03-17T21:17:41.900Z,2.85
2023-03-17T21:20:10.843Z,2.90
2023-03-17T21:22:37.543Z,3.00
2023-03-17T21:25:04.988Z,3.17
2023-03-17T21:27:31.369Z,3.20
2023-03-17T21:29:57.834Z,3.08
2023-03-17T21:32:24.593Z,2.53
2023-03-17T21:34:51.535Z,3.42
2023-03-17T21:37:18.654Z,3.00
2023-03-17T21:39:45.735Z,2.83
2023-03-17T21:42:12.244Z,2.90
2023-03-17T21:44:39.167Z,3.55
2023-03-17T21:47:05.706Z,3.47
2023-03-17T21:49:32.199Z,3.17
2023-03-17T21:51:58.773Z,3.08
2023-03-17T21:54:25.505Z,2.80
2023-03-17T21:56:52.552Z,2.90
2023-03-17T21:59:20.861Z,3.22
2023-03-17T22:01:51.756Z,3.35
2023-03-17T22:04:18.331Z,3.30
2023-03-17T22:06:44.744Z,3.13
2023-03-17T22:09:11.142Z,3.40
2023-03-17T22:11:37.697Z,3.35
2023-03-17T22:14:04.149Z,2.80
2023-03-17T22:16:30.899Z,3.47
2023-03-17T22:18:57.354Z,2.95
2023-03-17T22:21:24.921Z,3.10
2023-03-17T22:23:51.779Z,3.10
2023-03-17T22:26:20.499Z,2.78
2023-03-17T22:28:49.021Z,2.85
2023-03-17T22:31:18.652Z,3.00
2023-03-17T22:33:46.569Z,3.15
2023-03-17T22:36:13.121Z,3.00
2023-03-17T22:38:40.217Z,3.22
2023-03-17T22:41:12.942Z,3.17
2023-03-17T22:43:40.225Z,3.30
2023-03-17T22:46:07.389Z,3.33
2023-03-17T22:48:36.075Z,3.38
2023-03-17T22:51:08.968Z,3.17
2023-03-17T22:53:36.593Z,2.78
2023-03-17T22:56:04.086Z,3.03
2023-03-17T22:58:31.090Z,2.55
2023-03-17T23:00:57.950Z,3.28
2023-03-17T23:03:26.174Z,3.40
2023-03-17T23:05:57.071Z,3.20
2023-03-17T23:08:24.420Z,3.13
2023-03-17T23:10:51.313Z,3.20
2023-03-17T23:13:19.458Z,3.10
2023-03-17T23:15:46.702Z,3.17
2023-03-17T23:18:13.106Z,3.75
2023-03-17T23:20:40.626Z,2.88
2023-03-17T23:23:08.302Z,3.60
2023-03-17T23:25:35.525Z,3.67
2023-03-17T23:28:02.847Z,3.83
2023-03-17T23:30:29.812Z,4.10
2023-03-17T23:32:56.569Z,3.67
2023-03-17T23:35:23.570Z,4.20
2023-03-17T23:37:50.009Z,3.92
2023-03-17T23:40:17.221Z,3.30
2023-03-17T23:42:45.860Z,4.05
2023-03-17T23:45:12.334Z,4.05
2023-03-17T23:47:38.926Z,4.70
2023-03-17T23:50:05.953Z,4.30
2023-03-17T23:52:32.597Z,4.50
2023-03-17T23:54:59.663Z,3.95
2023-03-17T23:57:26.281Z,3.90
2023-03-17T23:59:52.829Z,3.50
